This is the latest recevied weather packets stored in our database for station/object KB3GVC-13. If no packets are shown the sender has not sent any weather packets the latest 1 day(s).
| Time | Temp. | Humidity | Pressure | Rain* | Wind** | Luminosity | Snow |
|---|---|---|---|---|---|---|---|
| 1778093216 | 18.33° C | 83% | 1009.4 hPa | 0 mm | - | - | - |
| 1778092610 | 18.33° C | 83% | 1009.5 hPa | 0 mm | - | - | - |
| 1778091398 | 18.33° C | 84% | 1009.4 hPa | 0 mm | - | - | - |
| 1778091095 | 18.33° C | 84% | 1009.6 hPa | 0 mm | - | - | - |
| 1778090488 | 18.33° C | 85% | 1009.9 hPa | 0 mm | - | - | - |
| 1778089880 | 18.33° C | 85% | 1009.8 hPa | 0 mm | - | - | - |
| 1778089276 | 18.33° C | 86% | 1009.8 hPa | 0 mm | - | - | - |
| 1778088670 | 18.33° C | 86% | 1009.9 hPa | 0 mm | - | - | - |
| 1778086242 | 17.78° C | 89% | 1010 hPa | 0 mm | - | - | - |
| 1778084421 | 17.78° C | 91% | 1010.4 hPa | 0 mm | - | - | - |
| 1778084119 | 17.22° C | 91% | 1010.4 hPa | 0 mm | - | - | - |
| 1778081800 | 17.78° C | 88% | 1011.4 hPa | 3.05 mm | - | - | - |
| 1778081194 | 17.78° C | 85% | 1011.1 hPa | 0 mm | - | - | - |
| 1778080590 | 17.78° C | 84% | 1011.3 hPa | 1.78 mm | - | - | - |
| 1778078468 | 19.44° C | 74% | 1011.1 hPa | 0 mm | - | - | - |
| 1778078166 | 19.44° C | 72% | 1011.4 hPa | 0 mm | - | - | - |
| 1778077864 | 20° C | 71% | 1011.2 hPa | 0 mm | - | - | - |
| 1778076957 | 20° C | 70% | 1011.4 hPa | 0 mm | - | - | - |
| 1778075139 | 20.56° C | 67% | 1011.2 hPa | 0 mm | - | - | - |
| 1778073926 | 20° C | 67% | 1011.1 hPa | 0 mm | - | - | - |
| 1778073624 | 20° C | 68% | 1011.1 hPa | 0 mm | - | - | - |
| 1778071505 | 19.44° C | 71% | 1011.4 hPa | 0 mm | - | - | - |
| 1778070598 | 19.44° C | 72% | 1011.3 hPa | 0 mm | - | - | - |
| 1778070294 | 19.44° C | 72% | 1011.4 hPa | 0 mm | - | - | - |
| 1778069993 | 19.44° C | 72% | 1011.3 hPa | 0 mm | - | - | - |
* Rain latest hour (hover to see other rain measurements)
** Current wind speed in m/s (hover to see current wind gust speed)